createdAt,value
2019-01-18T00:02:10.066Z,3.20
2019-01-18T00:04:39.118Z,3.23
2019-01-18T00:07:08.202Z,3.00
2019-01-18T00:09:37.312Z,3.17
2019-01-18T00:12:06.388Z,3.13
2019-01-18T00:14:35.528Z,3.30
2019-01-18T00:17:04.662Z,3.83
2019-01-18T00:19:33.784Z,3.73
2019-01-18T00:22:02.953Z,3.40
2019-01-18T00:24:32.001Z,3.63
2019-01-18T00:27:01.093Z,3.60
2019-01-18T00:29:30.263Z,3.80
2019-01-18T00:31:59.710Z,3.80
2019-01-18T00:34:28.828Z,3.80
2019-01-18T00:36:57.931Z,3.83
2019-01-18T00:39:27.037Z,3.83
2019-01-18T00:41:56.124Z,3.87
2019-01-18T00:44:25.229Z,4.20
2019-01-18T00:46:54.303Z,4.50
2019-01-18T00:49:23.401Z,4.60
2019-01-18T00:51:52.485Z,4.80
2019-01-18T00:54:21.594Z,4.47
2019-01-18T00:56:50.679Z,4.47
2019-01-18T00:59:20.065Z,4.50
2019-01-18T01:01:49.151Z,4.37
2019-01-18T01:04:18.275Z,4.93
2019-01-18T01:06:47.285Z,4.40
2019-01-18T01:09:16.397Z,4.50
2019-01-18T01:11:45.484Z,4.60
2019-01-18T01:14:14.518Z,4.97
2019-01-18T01:16:43.705Z,4.40
2019-01-18T01:19:13.150Z,4.50
2019-01-18T01:21:42.225Z,4.10
2019-01-18T01:24:11.330Z,4.53
2019-01-18T01:26:40.407Z,4.40
2019-01-18T01:29:09.525Z,4.50
2019-01-18T01:31:38.594Z,4.27
2019-01-18T01:34:07.689Z,4.17
2019-01-18T01:36:36.814Z,4.17
2019-01-18T01:39:09.703Z,3.90
2019-01-18T01:41:38.795Z,4.10
2019-01-18T01:44:07.915Z,4.47
2019-01-18T01:46:37.006Z,3.80
2019-01-18T01:49:06.113Z,3.53
2019-01-18T01:51:35.238Z,3.77
2019-01-18T01:54:04.652Z,2.87
2019-01-18T01:56:33.709Z,3.27
2019-01-18T01:59:02.815Z,2.47
2019-01-18T02:01:31.892Z,2.50
2019-01-18T02:04:01.015Z,2.30
2019-01-18T02:06:30.098Z,1.40
2019-01-18T02:08:59.186Z,1.63
2019-01-18T02:11:28.305Z,1.50
2019-01-18T02:13:57.404Z,1.50
2019-01-18T02:16:26.495Z,1.40
2019-01-18T02:18:55.584Z,1.43
2019-01-18T02:21:24.694Z,1.50
2019-01-18T02:23:53.776Z,1.60
2019-01-18T02:26:22.874Z,1.30
2019-01-18T02:28:51.878Z,1.20
2019-01-18T02:31:20.985Z,1.50
2019-01-18T02:33:49.989Z,1.40
2019-01-18T02:36:19.101Z,1.33
2019-01-18T02:38:48.215Z,1.50
2019-01-18T02:41:17.310Z,1.50
2019-01-18T02:43:46.330Z,1.47
2019-01-18T02:46:15.754Z,1.47
2019-01-18T02:48:45.099Z,1.83
2019-01-18T02:51:14.226Z,1.57
2019-01-18T02:53:43.594Z,1.77
2019-01-18T02:56:13.027Z,1.60
2019-01-18T02:58:42.125Z,1.20
2019-01-18T03:01:11.238Z,1.60
2019-01-18T03:03:40.315Z,1.13
2019-01-18T03:06:09.420Z,1.60
2019-01-18T03:08:38.604Z,1.33
2019-01-18T03:11:07.640Z,1.30
2019-01-18T03:13:36.720Z,1.67
2019-01-18T03:16:05.825Z,2.27
2019-01-18T03:18:34.915Z,1.50
2019-01-18T03:21:04.052Z,1.30
2019-01-18T03:23:33.132Z,1.60
2019-01-18T03:26:02.247Z,1.43
2019-01-18T03:28:31.412Z,1.90
2019-01-18T03:31:00.521Z,1.83
2019-01-18T03:33:29.617Z,1.50
2019-01-18T03:35:59.034Z,1.60
2019-01-18T03:38:28.134Z,1.50
2019-01-18T03:40:57.276Z,1.43
2019-01-18T03:43:26.364Z,1.60
2019-01-18T03:45:55.478Z,1.77
2019-01-18T03:48:24.559Z,1.47
2019-01-18T03:50:53.674Z,1.50
2019-01-18T03:53:22.679Z,1.67
2019-01-18T03:55:51.806Z,1.80
2019-01-18T03:58:20.989Z,2.33
2019-01-18T04:00:50.088Z,3.57
2019-01-18T04:03:19.189Z,6.03
2019-01-18T04:05:48.332Z,2.00
2019-01-18T04:08:17.513Z,1.77
2019-01-18T04:10:46.619Z,2.50
2019-01-18T04:13:15.702Z,2.40
2019-01-18T04:15:44.909Z,2.43
2019-01-18T04:18:13.916Z,1.77
2019-01-18T04:20:43.027Z,1.83
2019-01-18T04:23:12.108Z,2.33
2019-01-18T04:25:41.259Z,1.73
2019-01-18T04:28:10.375Z,1.90
2019-01-18T04:30:39.375Z,2.03
2019-01-18T04:33:08.488Z,1.60
2019-01-18T04:35:37.606Z,1.93
2019-01-18T04:38:06.762Z,1.80
2019-01-18T04:40:35.851Z,1.90
2019-01-18T04:43:05.071Z,2.10
2019-01-18T04:45:34.144Z,2.00
2019-01-18T04:48:03.252Z,1.90
2019-01-18T04:50:32.355Z,2.10
2019-01-18T04:53:01.477Z,2.10
2019-01-18T04:55:30.565Z,1.80
2019-01-18T04:57:59.695Z,2.10
2019-01-18T05:00:30.550Z,1.90
2019-01-18T05:02:59.658Z,1.97
2019-01-18T05:05:28.756Z,2.07
2019-01-18T05:07:58.071Z,2.30
2019-01-18T05:10:28.673Z,1.93
2019-01-18T05:12:58.184Z,2.00
2019-01-18T05:15:29.431Z,2.07
2019-01-18T05:17:58.553Z,1.80
2019-01-18T05:20:27.622Z,2.87
2019-01-18T05:22:56.727Z,2.23
2019-01-18T05:25:26.144Z,3.07
2019-01-18T05:27:55.365Z,2.50
2019-01-18T05:30:26.534Z,2.40
2019-01-18T05:32:55.745Z,2.00
2019-01-18T05:35:25.320Z,2.17
2019-01-18T05:37:54.391Z,2.57
2019-01-18T05:40:23.799Z,2.63
2019-01-18T05:42:52.924Z,2.30
2019-01-18T05:45:22.458Z,2.50
2019-01-18T05:47:51.896Z,3.00
2019-01-18T05:50:28.831Z,2.87
2019-01-18T05:53:01.238Z,3.57
2019-01-18T05:55:31.469Z,2.40
2019-01-18T05:58:01.718Z,2.30
2019-01-18T06:00:46.393Z,2.67
2019-01-18T06:03:15.696Z,2.67
2019-01-18T06:05:45.414Z,2.83
2019-01-18T06:08:14.543Z,2.67
2019-01-18T06:10:44.301Z,3.80
2019-01-18T06:13:13.414Z,3.40
2019-01-18T06:15:43.152Z,3.87
2019-01-18T06:18:12.396Z,3.20
2019-01-18T06:20:42.131Z,5.00
2019-01-18T06:23:12.297Z,4.70
2019-01-18T06:25:43.130Z,3.97
2019-01-18T06:28:12.651Z,3.77
2019-01-18T06:30:42.567Z,3.80
2019-01-18T06:33:12.504Z,3.50
2019-01-18T06:35:43.737Z,3.23
2019-01-18T06:38:12.941Z,3.90
2019-01-18T06:40:43.204Z,7.30
2019-01-18T06:43:14.411Z,3.70
2019-01-18T06:45:43.917Z,4.47
2019-01-18T06:48:16.249Z,3.90
2019-01-18T06:50:47.503Z,11.67
2019-01-18T06:53:16.770Z,3.67
2019-01-18T06:55:45.938Z,2.80
2019-01-18T06:58:15.055Z,2.50
2019-01-18T07:00:44.145Z,8.77
2019-01-18T07:03:13.790Z,7.37
2019-01-18T07:05:42.995Z,5.70
2019-01-18T07:08:12.171Z,18.70
2019-01-18T07:10:41.543Z,11.07
2019-01-18T07:13:11.822Z,7.83
2019-01-18T07:15:40.917Z,4.27
2019-01-18T07:18:10.162Z,3.70
2019-01-18T07:20:39.437Z,3.33
2019-01-18T07:23:08.553Z,2.97
2019-01-18T07:25:37.676Z,3.00
2019-01-18T07:28:06.845Z,3.30
2019-01-18T07:30:43.266Z,2.90
2019-01-18T07:33:17.167Z,3.70
2019-01-18T07:35:46.439Z,3.00
2019-01-18T07:38:15.716Z,3.10
2019-01-18T07:40:44.815Z,3.83
2019-01-18T07:43:13.964Z,3.30
2019-01-18T07:45:43.394Z,3.53
2019-01-18T07:48:12.508Z,3.30
2019-01-18T07:50:41.943Z,3.50
2019-01-18T07:53:11.083Z,3.80
2019-01-18T07:55:40.365Z,4.13
2019-01-18T07:58:09.452Z,3.83
2019-01-18T08:00:38.625Z,3.67
2019-01-18T08:03:08.167Z,3.57
2019-01-18T08:05:37.257Z,3.70
2019-01-18T08:08:06.682Z,4.10
2019-01-18T08:10:35.885Z,4.03
2019-01-18T08:13:06.186Z,4.70
2019-01-18T08:15:35.346Z,5.80
2019-01-18T08:18:05.240Z,4.97
2019-01-18T08:20:34.654Z,5.37
2019-01-18T08:23:03.993Z,5.07
2019-01-18T08:25:33.475Z,4.93
2019-01-18T08:28:03.538Z,4.90
2019-01-18T08:30:32.763Z,4.40
2019-01-18T08:33:01.841Z,5.27
2019-01-18T08:35:31.577Z,5.67
2019-01-18T08:38:00.713Z,7.87
2019-01-18T08:40:48.197Z,8.87
2019-01-18T08:43:18.397Z,13.17
2019-01-18T08:46:07.773Z,25.90
2019-01-18T08:48:37.037Z,18.07
2019-01-18T08:51:06.130Z,21.77
2019-01-18T08:53:35.317Z,33.03
2019-01-18T08:56:05.268Z,22.30
2019-01-18T08:58:34.426Z,36.40
2019-01-18T09:01:03.542Z,36.10
2019-01-18T09:03:32.675Z,38.80
2019-01-18T09:06:01.886Z,12.17
2019-01-18T09:08:30.947Z,13.97
2019-01-18T09:11:00.106Z,7.77
2019-01-18T09:13:29.850Z,5.53
2019-01-18T09:15:58.963Z,5.57
2019-01-18T09:18:28.058Z,5.13
2019-01-18T09:20:57.174Z,4.43
2019-01-18T09:23:26.272Z,4.73
2019-01-18T09:25:56.218Z,4.80
2019-01-18T09:28:25.764Z,4.30
2019-01-18T09:30:54.936Z,5.23
2019-01-18T09:33:24.042Z,4.60
2019-01-18T09:35:53.174Z,4.27
2019-01-18T09:38:22.401Z,4.80
2019-01-18T09:40:51.526Z,4.90
2019-01-18T09:43:20.663Z,4.77
2019-01-18T09:45:50.175Z,4.93
2019-01-18T09:48:19.288Z,5.27
2019-01-18T09:50:48.427Z,4.53
2019-01-18T09:53:17.784Z,4.73
2019-01-18T09:55:46.990Z,4.90
2019-01-18T09:58:16.083Z,4.37
2019-01-18T10:00:45.209Z,4.93
2019-01-18T10:03:14.307Z,4.93
2019-01-18T10:05:43.556Z,5.07
2019-01-18T10:08:13.267Z,4.13
2019-01-18T10:10:42.564Z,5.07
2019-01-18T10:13:11.686Z,4.67
2019-01-18T10:15:43.162Z,4.80
2019-01-18T10:18:12.434Z,4.73
2019-01-18T10:20:41.569Z,4.77
2019-01-18T10:23:10.666Z,4.90
2019-01-18T10:25:39.817Z,4.83
2019-01-18T10:28:09.234Z,5.17
2019-01-18T10:30:38.398Z,5.60
2019-01-18T10:33:07.566Z,5.50
2019-01-18T10:35:36.725Z,5.90
2019-01-18T10:38:06.081Z,6.23
2019-01-18T10:40:35.638Z,6.27
2019-01-18T10:43:04.793Z,7.47
2019-01-18T10:45:33.920Z,6.33
2019-01-18T10:48:03.031Z,5.50
2019-01-18T10:50:33.749Z,9.63
2019-01-18T10:53:03.015Z,5.83
2019-01-18T10:55:32.181Z,6.27
2019-01-18T10:58:01.950Z,4.87
2019-01-18T11:00:34.105Z,7.17
2019-01-18T11:03:03.243Z,5.43
2019-01-18T11:05:32.370Z,6.00
2019-01-18T11:08:01.472Z,6.70
2019-01-18T11:10:31.665Z,6.00
2019-01-18T11:13:00.759Z,5.97
2019-01-18T11:15:31.134Z,7.40
2019-01-18T11:18:00.273Z,6.97
2019-01-18T11:20:35.944Z,10.10
2019-01-18T11:23:05.044Z,6.57
2019-01-18T11:25:34.174Z,6.00
2019-01-18T11:28:03.277Z,6.00
2019-01-18T11:30:32.411Z,5.20
2019-01-18T11:33:01.591Z,5.63
2019-01-18T11:35:31.216Z,5.53
2019-01-18T11:38:00.322Z,5.70
2019-01-18T11:40:29.921Z,5.63
2019-01-18T11:42:59.191Z,4.50
2019-01-18T11:45:28.315Z,4.90
2019-01-18T11:47:57.431Z,5.20
2019-01-18T11:50:26.841Z,5.17
2019-01-18T11:52:56.030Z,4.83
2019-01-18T11:55:25.169Z,5.43
2019-01-18T11:57:54.319Z,4.97
2019-01-18T12:00:25.365Z,5.20
2019-01-18T12:02:54.449Z,4.63
2019-01-18T12:05:23.898Z,4.17
2019-01-18T12:07:54.255Z,4.13
2019-01-18T12:10:25.971Z,5.10
2019-01-18T12:12:55.077Z,4.37
2019-01-18T12:15:24.431Z,4.40
2019-01-18T12:17:53.524Z,4.07
2019-01-18T12:20:25.282Z,4.10
2019-01-18T12:22:54.691Z,4.03
2019-01-18T12:25:23.920Z,3.97
2019-01-18T12:27:53.225Z,4.00
2019-01-18T12:30:27.639Z,4.37
2019-01-18T12:32:57.040Z,4.10
2019-01-18T12:35:26.274Z,4.67
2019-01-18T12:37:55.551Z,4.50
2019-01-18T12:40:25.161Z,4.40
2019-01-18T12:42:54.291Z,15.90
2019-01-18T12:45:24.008Z,8.83
2019-01-18T12:47:53.329Z,13.10
2019-01-18T12:50:25.525Z,9.57
2019-01-18T12:52:54.881Z,9.10
2019-01-18T12:55:24.292Z,6.20
2019-01-18T12:57:53.603Z,5.40
2019-01-18T13:00:24.059Z,5.10
2019-01-18T13:02:53.644Z,5.37
2019-01-18T13:05:25.986Z,8.63
2019-01-18T13:07:55.101Z,4.60
2019-01-18T13:10:24.285Z,4.23
2019-01-18T13:12:53.902Z,4.40
2019-01-18T13:15:30.101Z,8.17
2019-01-18T13:17:59.230Z,8.47
2019-01-18T13:20:28.684Z,8.37
2019-01-18T13:22:58.034Z,17.43
2019-01-18T13:25:27.184Z,11.90
2019-01-18T13:27:59.920Z,30.60
2019-01-18T13:30:27.470Z,31.47
2019-01-18T13:32:56.764Z,11.50
2019-01-18T13:35:25.884Z,12.37
2019-01-18T13:37:55.136Z,49.10
2019-01-18T13:40:24.447Z,5.97
2019-01-18T13:42:53.816Z,4.40
2019-01-18T13:45:24.383Z,13.03
2019-01-18T13:47:54.154Z,13.77
2019-01-18T13:50:23.400Z,27.63
2019-01-18T13:52:52.777Z,9.50
2019-01-18T13:55:24.180Z,4.90
2019-01-18T13:57:53.443Z,18.00
2019-01-18T14:00:22.530Z,4.47
2019-01-18T14:02:51.998Z,9.43
2019-01-18T14:08:02.880Z,7.80
2019-01-18T14:10:37.497Z,5.03
2019-01-18T14:13:04.069Z,7.27
2019-01-18T14:15:35.649Z,6.57
2019-01-18T15:28:46.368Z,4.53
2019-01-18T15:31:15.679Z,5.53
2019-01-18T15:33:44.909Z,4.47
2019-01-18T15:36:13.992Z,3.37
2019-01-18T15:38:44.112Z,3.90
2019-01-18T15:41:13.350Z,3.60
2019-01-18T15:43:42.501Z,3.70
2019-01-18T15:46:11.658Z,4.30
2019-01-18T15:48:40.802Z,4.10
2019-01-18T15:51:10.089Z,3.60
2019-01-18T15:53:39.254Z,3.07
2019-01-18T15:56:08.761Z,3.00
2019-01-18T15:58:37.995Z,4.37
2019-01-18T16:01:07.319Z,3.60
2019-01-18T16:03:36.402Z,3.27
2019-01-18T16:06:05.507Z,3.40
2019-01-18T16:08:34.627Z,3.60
2019-01-18T16:11:03.899Z,3.70
2019-01-18T16:13:33.043Z,4.67
2019-01-18T16:16:12.471Z,3.03
2019-01-18T16:18:41.669Z,6.23
2019-01-18T16:21:10.892Z,3.83
2019-01-18T16:23:40.031Z,9.87
2019-01-18T16:26:09.186Z,9.53
2019-01-18T16:28:38.388Z,7.00
2019-01-18T16:31:13.945Z,12.93
2019-01-18T16:33:43.331Z,11.20
2019-01-18T16:36:13.313Z,7.03
2019-01-18T16:38:43.157Z,11.40
2019-01-18T16:41:13.957Z,13.07
2019-01-18T16:43:45.476Z,4.50
2019-01-18T16:46:14.822Z,4.50
2019-01-18T16:48:45.425Z,9.63
2019-01-18T16:51:14.635Z,20.57
2019-01-18T16:53:44.040Z,6.67
2019-01-18T16:56:13.322Z,5.20
2019-01-18T16:58:42.653Z,11.57
2019-01-18T17:01:12.009Z,11.53
2019-01-18T17:03:41.437Z,6.03
2019-01-18T17:06:10.960Z,2.93
2019-01-18T17:08:41.236Z,3.13
2019-01-18T17:11:10.450Z,3.10
2019-01-18T17:13:41.096Z,4.13
2019-01-18T17:16:10.381Z,4.43
2019-01-18T17:18:39.750Z,4.03
2019-01-18T17:21:08.899Z,4.37
2019-01-18T17:23:38.088Z,2.70
2019-01-18T17:26:08.452Z,2.57
2019-01-18T17:28:37.617Z,2.83
2019-01-18T17:31:06.727Z,3.20
2019-01-18T17:33:37.106Z,3.00
2019-01-18T17:36:36.943Z,2.90
2019-01-18T17:39:42.778Z,2.50
2019-01-18T17:42:49.129Z,4.73
2019-01-18T17:45:53.478Z,3.73
2019-01-18T17:49:02.759Z,2.50
2019-01-18T17:52:03.546Z,2.80
2019-01-18T17:54:41.767Z,2.93
2019-01-18T17:58:04.398Z,3.00
2019-01-18T18:01:23.781Z,2.37
2019-01-18T18:04:28.343Z,2.90
2019-01-18T18:07:33.763Z,2.30
2019-01-18T18:10:17.042Z,3.60
2019-01-18T18:13:35.405Z,15.80
2019-01-18T18:16:30.172Z,4.00
2019-01-18T18:19:29.860Z,8.27
2019-01-18T18:22:38.740Z,6.80
2019-01-18T18:25:41.906Z,6.00
2019-01-18T18:28:29.895Z,4.03
2019-01-18T18:31:15.686Z,16.33
2019-01-18T18:34:20.308Z,9.00
2019-01-18T18:37:14.092Z,6.30
2019-01-18T18:40:01.981Z,5.80
2019-01-18T18:43:02.566Z,6.07
2019-01-18T18:46:10.128Z,4.77
2019-01-18T18:49:10.583Z,6.07
2019-01-18T18:52:39.120Z,6.73
2019-01-18T18:55:33.756Z,3.90
2019-01-18T18:58:29.779Z,9.60
2019-01-18T19:01:44.772Z,18.83
2019-01-18T19:04:55.296Z,6.00
2019-01-18T19:08:05.664Z,3.10
2019-01-18T19:11:04.814Z,2.80
2019-01-18T19:14:21.184Z,3.47
2019-01-18T19:17:17.302Z,3.30
2019-01-18T19:20:36.767Z,2.33
2019-01-18T19:23:41.779Z,2.20
2019-01-18T19:26:52.051Z,2.30
2019-01-18T19:29:55.436Z,2.20
2019-01-18T19:33:23.695Z,4.00
2019-01-18T19:36:48.782Z,2.10
2019-01-18T19:39:48.913Z,2.77
2019-01-18T19:42:59.130Z,3.20
2019-01-18T19:46:18.426Z,4.17
2019-01-18T19:49:28.809Z,2.73
2019-01-18T19:52:08.127Z,5.60
2019-01-18T19:54:50.052Z,6.20
2019-01-18T19:57:55.262Z,8.10
2019-01-18T20:01:07.313Z,8.90
2019-01-18T20:04:20.351Z,11.77
2019-01-18T20:07:17.455Z,10.60
2019-01-18T20:10:18.390Z,8.47
2019-01-18T20:13:32.975Z,9.90
2019-01-18T20:16:42.048Z,15.77
2019-01-18T20:19:43.577Z,10.87
2019-01-18T20:22:27.446Z,10.60
2019-01-18T20:25:06.682Z,9.17
2019-01-18T20:28:08.165Z,10.30
2019-01-18T20:31:00.291Z,25.63
2019-01-18T20:34:18.310Z,8.47
2019-01-18T20:37:11.075Z,7.23
2019-01-18T20:40:24.001Z,9.40
2019-01-18T20:43:35.963Z,6.37
2019-01-18T20:46:24.149Z,5.50
2019-01-18T20:49:19.301Z,4.63
2019-01-18T20:52:16.215Z,4.20
2019-01-18T20:55:35.193Z,3.50
2019-01-18T20:58:37.011Z,7.17
2019-01-18T21:01:29.459Z,10.00
2019-01-18T21:04:56.159Z,11.37
2019-01-18T21:08:00.412Z,5.53
2019-01-18T21:10:45.625Z,7.87
2019-01-18T21:14:07.631Z,12.50
2019-01-18T21:17:14.796Z,10.57
2019-01-18T21:19:55.309Z,7.43
2019-01-18T21:23:01.249Z,6.90
2019-01-18T21:26:17.530Z,7.03
2019-01-18T21:29:51.988Z,8.53
2019-01-18T21:33:18.468Z,6.60
2019-01-18T21:36:40.981Z,4.13
2019-01-18T21:39:44.568Z,4.30
2019-01-18T21:42:30.536Z,4.87
2019-01-18T21:45:59.788Z,4.90
2019-01-18T21:49:08.378Z,5.43
2019-01-18T21:52:15.074Z,6.40
2019-01-18T21:55:12.323Z,7.00
2019-01-18T21:58:12.316Z,10.40
2019-01-18T22:01:17.064Z,8.07
2019-01-18T22:03:57.364Z,7.57
2019-01-18T22:06:45.180Z,7.93
2019-01-18T22:10:00.423Z,5.60
2019-01-18T22:13:05.068Z,6.20
2019-01-18T22:16:23.401Z,5.50
2019-01-18T22:19:21.427Z,3.87
2019-01-18T22:22:13.917Z,3.23
2019-01-18T22:25:13.113Z,2.53
2019-01-18T22:28:21.419Z,2.80
2019-01-18T22:31:40.377Z,2.47
2019-01-18T22:34:53.271Z,2.60
2019-01-18T22:37:44.098Z,4.60
2019-01-18T22:40:48.377Z,4.50
2019-01-18T22:43:49.320Z,4.40
2019-01-18T22:47:01.805Z,3.90
2019-01-18T22:49:36.976Z,4.23
2019-01-18T22:52:36.687Z,3.57
2019-01-18T22:55:44.777Z,4.70
2019-01-18T22:59:02.288Z,7.40
2019-01-18T23:01:54.627Z,7.83
2019-01-18T23:05:04.384Z,9.53
2019-01-18T23:08:29.833Z,8.37
2019-01-18T23:11:10.576Z,12.90
2019-01-18T23:14:32.517Z,7.17
2019-01-18T23:17:29.235Z,8.23
2019-01-18T23:21:00.793Z,7.60
2019-01-18T23:23:39.788Z,8.70
2019-01-18T23:26:49.052Z,8.77
2019-01-18T23:29:33.396Z,7.83
2019-01-18T23:32:29.154Z,6.87
2019-01-18T23:35:23.588Z,7.90
2019-01-18T23:38:33.608Z,6.60
2019-01-18T23:41:20.815Z,10.17
2019-01-18T23:44:23.341Z,10.77
2019-01-18T23:47:20.213Z,7.63
2019-01-18T23:50:30.250Z,6.73
2019-01-18T23:53:19.258Z,6.20
2019-01-18T23:56:04.342Z,5.93
2019-01-18T23:59:08.128Z,6.63
